Time;durP1;ratioP1;P1;durP2;ratioP2;P2;SDS_P1;SDS_P2;PMS_P1;PMS_P2;Temp;Humidity;BMP_temperature;BMP_pressure;BME280_temperature;BME280_humidity;BME280_pressure;Samples;Min_cycle;Max_cycle;Signal;HPM_P1;HPM_P2
2022/02/02 00:01:21;;;;;;;26.50;6.82;;;;;;;9.09;69.59;99962.88;5040321;28;20052;-80
2022/02/02 00:03:52;;;;;;;25.45;5.78;;;;;;;9.18;69.38;99956.53;5048518;28;20060;-80
2022/02/02 00:06:25;;;;;;;27.40;6.55;;;;;;;9.19;69.57;99947.88;5056377;28;20120;-82
2022/02/02 00:08:59;;;;;;;24.95;6.43;;;;;;;9.19;69.92;99947.88;5054269;28;20056;-80
2022/02/02 00:12:08;;;;;;;29.92;7.60;;;;;;;9.18;70.16;99957.38;5044961;28;20050;-81
2022/02/02 00:14:54;;;;;;;19.50;5.78;;;;;;;9.22;70.31;99975.03;5036852;28;20053;-80
2022/02/02 00:17:34;;;;;;;26.83;7.07;;;;;;;9.26;70.28;99976.03;5038151;28;20073;-82
2022/02/02 00:20:13;;;;;;;25.80;6.72;;;;;;;9.18;69.77;99984.34;5048412;28;20049;-82
2022/02/02 00:22:43;;;;;;;22.38;6.45;;;;;;;9.26;69.13;99986.31;5038763;28;20053;-82
2022/02/02 00:25:16;;;;;;;25.52;7.35;;;;;;;9.20;69.33;99974.53;5049299;28;20056;-81
2022/02/02 00:27:47;;;;;;;27.85;6.45;;;;;;;9.21;69.61;99986.47;5046673;28;20049;-80
2022/02/02 00:30:19;;;;;;;24.30;6.40;;;;;;;9.26;68.73;99986.31;5037408;28;20057;-80
2022/02/02 00:33:02;;;;;;;24.85;7.38;;;;;;;9.06;69.31;99994.03;5037227;28;20041;-81
2022/02/02 00:35:34;;;;;;;22.02;6.53;;;;;;;9.08;68.46;99990.97;5056947;28;20423;-81
2022/02/02 00:38:01;;;;;;;28.05;7.38;;;;;;;9.18;67.89;99993.47;5058057;28;20048;-81
2022/02/02 00:40:30;;;;;;;21.58;6.85;;;;;;;9.27;66.93;99994.34;5040132;28;20045;-80
2022/02/02 00:42:57;;;;;;;25.77;6.07;;;;;;;9.12;67.03;99976.13;5037147;28;20045;-81
2022/02/02 00:45:31;;;;;;;24.35;6.20;;;;;;;9.21;67.02;99990.06;5049966;28;20049;-81
2022/02/02 00:48:01;;;;;;;21.45;6.38;;;;;;;9.23;67.06;100009.19;5037594;28;20061;-81
2022/02/02 00:50:29;;;;;;;24.95;6.90;;;;;;;9.12;66.65;99995.56;5055087;28;20064;-81
2022/02/02 00:52:56;;;;;;;25.90;5.97;;;;;;;9.18;66.71;100012.13;5056961;28;20493;-81
2022/02/02 00:55:24;;;;;;;21.85;5.65;;;;;;;9.12;66.79;100026.13;5046433;28;20053;-81
2022/02/02 00:57:53;;;;;;;21.70;5.82;;;;;;;9.22;66.18;100022.28;5037627;28;20478;-81
2022/02/02 01:00:21;;;;;;;24.40;6.00;;;;;;;9.26;66.00;100019.66;5047081;28;20053;-82
2022/02/02 01:02:48;;;;;;;26.65;6.80;;;;;;;9.29;65.43;100014.31;5036875;28;20041;-81
2022/02/02 01:05:15;;;;;;;29.75;6.40;;;;;;;9.17;64.93;100019.63;5044324;28;20076;-81
2022/02/02 01:08:14;;;;;;;24.23;6.00;;;;;;;9.21;64.95;100023.41;5057591;28;20055;-82
2022/02/02 01:10:45;;;;;;;20.25;5.55;;;;;;;9.14;65.13;100011.94;5040460;28;20504;-82
2022/02/02 01:18:48;;;;;;;25.77;6.45;;;;;;;9.13;64.68;100005.56;5035209;28;20421;-82
2022/02/02 01:21:29;;;;;;;22.98;4.97;;;;;;;9.12;63.97;99995.56;5046193;28;20078;-83
2022/02/02 01:29:28;;;;;;;30.88;7.75;;;;;;;9.12;64.48;100025.31;5054317;28;20052;-82
2022/02/02 01:31:55;;;;;;;20.35;5.10;;;;;;;9.12;64.38;100019.75;5036753;28;20060;-81
2022/02/02 01:34:23;;;;;;;19.35;6.43;;;;;;;8.98;65.05;100030.09;5053003;28;20049;-82
2022/02/02 01:36:50;;;;;;;22.92;5.65;;;;;;;9.07;65.09;100017.09;5056004;28;20048;-81
2022/02/02 01:39:19;;;;;;;25.20;5.85;;;;;;;9.04;64.57;100012.19;5044740;28;20053;-82
2022/02/02 01:41:47;;;;;;;24.02;5.28;;;;;;;9.10;64.96;100006.16;5022076;28;20056;-81
2022/02/02 01:44:23;;;;;;;25.08;5.50;;;;;;;9.14;64.82;100001.63;5053030;28;20057;-81
2022/02/02 01:46:53;;;;;;;25.02;7.05;;;;;;;9.13;65.07;100010.28;5052413;28;20048;-81
2022/02/02 01:55:07;;;;;;;24.75;5.20;;;;;;;9.06;65.54;100004.34;5035232;28;20061;-82
2022/02/02 01:57:58;;;;;;;23.83;5.32;;;;;;;9.17;65.34;100008.50;5039720;28;20159;-82
2022/02/02 02:00:25;;;;;;;24.95;5.68;;;;;;;9.18;65.53;100018.50;5041938;28;20060;-82
2022/02/02 02:02:54;;;;;;;26.88;5.60;;;;;;;9.13;65.68;100010.28;5041319;28;20052;-82
2022/02/02 02:05:22;;;;;;;19.27;5.55;;;;;;;9.22;65.63;100008.38;5037795;28;20045;-81
2022/02/02 02:07:49;;;;;;;27.80;7.15;;;;;;;9.20;66.01;100020.94;5036374;28;20061;-81
2022/02/02 02:10:18;;;;;;;27.10;6.18;;;;;;;9.26;66.24;100039.97;5040997;28;20053;-82
2022/02/02 02:12:51;;;;;;;31.13;6.80;;;;;;;9.25;66.58;100038.31;5036966;28;20041;-82
2022/02/02 02:15:19;;;;;;;22.25;5.57;;;;;;;9.30;66.52;100040.97;5035610;28;20074;-81
2022/02/02 02:17:47;;;;;;;21.85;6.35;;;;;;;9.32;66.59;100046.19;5035832;28;20490;-82
2022/02/02 02:20:16;;;;;;;37.83;8.45;;;;;;;9.13;66.70;100049.16;5042490;28;20049;-81
2022/02/02 02:22:45;;;;;;;27.85;6.85;;;;;;;9.09;66.67;100053.72;5034799;28;20061;-81
2022/02/02 02:25:20;;;;;;;30.55;8.13;;;;;;;9.09;66.82;100059.25;5048087;28;20395;-81
2022/02/02 02:27:48;;;;;;;23.35;7.57;;;;;;;9.05;67.11;100055.47;5042385;28;20050;-81
2022/02/02 02:30:24;;;;;;;29.63;7.03;;;;;;;8.93;66.98;100067.97;5036075;28;20517;-82
2022/02/02 02:33:14;;;;;;;24.00;6.22;;;;;;;9.06;66.70;100043.25;5036484;28;20046;-82
2022/02/02 02:36:09;;;;;;;28.85;6.80;;;;;;;8.99;66.67;100059.50;5033233;28;20054;-81
2022/02/02 02:58:11;;;;;;;25.00;6.03;;;;;;;8.75;67.88;100080.03;5024532;28;20068;-82
2022/02/02 03:01:07;;;;;;;25.67;6.55;;;;;;;8.67;68.08;100075.22;5052212;28;20049;-82
2022/02/02 03:31:30;;;;;;;32.47;6.60;;;;;;;8.81;67.70;100075.22;5023145;28;20065;-81
2022/02/02 03:51:05;;;;;;;23.08;7.13;;;;;;;8.64;68.17;100098.88;5044386;28;20052;-81
2022/02/02 03:54:04;;;;;;;30.55;5.75;;;;;;;8.57;68.53;100105.97;5049475;28;20072;-81
2022/02/02 03:56:41;;;;;;;26.20;6.35;;;;;;;8.55;68.15;100100.75;5018772;28;20390;-82
2022/02/02 03:59:26;;;;;;;28.77;6.63;;;;;;;8.50;67.91;100098.91;5028490;28;20057;-81
2022/02/02 04:05:19;;;;;;;28.08;5.85;;;;;;;8.52;67.20;100102.22;5057460;28;20053;-82
2022/02/02 04:07:51;;;;;;;26.23;6.38;;;;;;;8.60;67.42;100099.81;5048743;28;20054;-82
2022/02/02 04:10:19;;;;;;;28.85;6.60;;;;;;;8.52;68.00;100106.91;5037600;28;20057;-82
2022/02/02 04:12:54;;;;;;;35.47;7.68;;;;;;;8.59;68.30;100114.81;5039663;28;20050;-82
2022/02/02 04:54:33;;;;;;;28.23;6.88;;;;;;;8.82;68.28;100091.56;5102430;27;20611;-59
2022/02/02 04:59:59;;;;;;;26.98;6.30;;;;;;;8.92;67.97;100099.69;5075106;28;20063;-59
2022/02/02 05:03:20;;;;;;;28.02;6.85;;;;;;;8.84;67.89;100108.75;5068715;28;20053;-55
2022/02/02 05:08:21;;;;;;;29.17;7.45;;;;;;;8.80;68.42;100117.97;5050731;28;20498;-59
2022/02/02 05:11:08;;;;;;;27.63;7.28;;;;;;;8.82;67.94;100111.00;5067669;28;20080;-54
2022/02/02 05:50:04;;;;;;;8.70;2.75;;;;;;;7.32;71.07;100228.50;5011960;28;20057;-56
2022/02/02 05:52:31;;;;;;;13.27;3.55;;;;;;;7.37;71.48;100240.63;5066197;28;20517;-58
2022/02/02 05:54:59;;;;;;;14.10;3.53;;;;;;;7.39;71.60;100235.59;5067971;28;20413;-58
2022/02/02 05:57:28;;;;;;;12.07;3.28;;;;;;;7.35;71.39;100245.63;5066610;28;20053;-56
2022/02/02 05:59:59;;;;;;;13.40;3.00;;;;;;;7.27;71.66;100245.19;5068005;28;20485;-57
2022/02/02 06:02:31;;;;;;;15.68;3.70;;;;;;;7.37;71.75;100255.31;5062889;28;20052;-56
2022/02/02 06:05:04;;;;;;;17.40;4.18;;;;;;;7.47;71.82;100240.47;5050366;28;20052;-57
2022/02/02 06:07:33;;;;;;;12.95;3.60;;;;;;;7.52;71.66;100245.97;5046978;28;20056;-58
2022/02/02 06:10:02;;;;;;;15.48;3.70;;;;;;;7.46;71.70;100245.22;5051215;28;20056;-58
2022/02/02 06:12:31;;;;;;;19.30;4.20;;;;;;;7.39;72.04;100246.69;5047339;28;20405;-58
2022/02/02 06:15:08;;;;;;;15.70;4.20;;;;;;;7.48;71.54;100250.47;5054367;28;20470;-59
2022/02/02 06:17:42;;;;;;;15.40;3.95;;;;;;;7.53;72.16;100253.16;5051470;28;20045;-58
2022/02/02 06:20:11;;;;;;;16.52;4.00;;;;;;;7.52;71.83;100257.06;5052030;28;20045;-53
2022/02/02 06:22:43;;;;;;;14.77;3.90;;;;;;;7.61;71.63;100246.13;5043882;28;20057;-59
2022/02/02 06:25:17;;;;;;;20.50;4.25;;;;;;;7.63;70.41;100244.69;5053726;28;20053;-59
2022/02/02 06:27:56;;;;;;;20.40;4.20;;;;;;;7.57;70.53;100254.19;5052290;28;20056;-58
2022/02/02 06:30:26;;;;;;;23.67;4.57;;;;;;;7.59;70.46;100260.25;5053119;28;20052;-53
2022/02/02 06:32:58;;;;;;;14.15;4.03;;;;;;;7.63;69.84;100258.53;5051433;28;20049;-59
2022/02/02 06:35:26;;;;;;;17.77;4.57;;;;;;;7.64;69.12;100257.44;5051684;28;20060;-55
2022/02/02 06:37:53;;;;;;;16.13;4.07;;;;;;;7.58;70.17;100264.19;5034297;28;20053;-58
2022/02/02 06:40:23;;;;;;;15.05;3.75;;;;;;;7.61;69.67;100263.56;5046921;28;20063;-59
2022/02/02 06:42:51;;;;;;;;;;;;;;;7.68;69.43;100266.75;5053249;28;20064;-54
2022/02/02 06:45:23;;;;;;;17.38;3.80;;;;;;;7.75;69.07;100277.50;5052801;28;20377;-56
2022/02/02 06:47:52;;;;;;;20.52;4.63;;;;;;;7.78;68.67;100271.34;5053300;28;20045;-59
2022/02/02 06:50:24;;;;;;;20.88;4.00;;;;;;;7.78;69.17;100287.16;5053470;28;20049;-56
2022/02/02 06:53:05;;;;;;;17.13;4.25;;;;;;;7.76;69.01;100281.91;5052053;28;20049;-57
2022/02/02 06:55:41;;;;;;;18.33;4.82;;;;;;;7.70;69.21;100285.88;5046853;28;20061;-56
2022/02/02 06:58:23;;;;;;;20.45;4.25;;;;;;;7.74;68.22;100295.25;5053295;28;20049;-55
2022/02/02 07:01:07;;;;;;;17.52;4.07;;;;;;;7.80;68.61;100305.16;5053058;28;20053;-59
2022/02/02 07:04:00;;;;;;;15.35;4.10;;;;;;;7.81;67.88;100311.50;5053571;28;20045;-58
2022/02/02 07:06:41;;;;;;;18.55;4.57;;;;;;;7.89;67.62;100313.59;5042336;28;20057;-58
2022/02/02 07:09:22;;;;;;;19.38;4.88;;;;;;;7.88;67.40;100325.84;5047668;28;20056;-55
2022/02/02 07:12:02;;;;;;;20.15;4.72;;;;;;;8.03;67.73;100331.16;5052733;28;20049;-59
2022/02/02 07:14:41;;;;;;;15.25;4.38;;;;;;;7.98;67.15;100334.00;5033658;28;20049;-56
2022/02/02 07:17:24;;;;;;;16.38;3.55;;;;;;;8.10;67.60;100337.13;5045973;28;20084;-56
2022/02/02 07:20:06;;;;;;;17.58;4.35;;;;;;;8.17;66.82;100341.47;5050518;28;20064;-57
2022/02/02 07:23:00;;;;;;;19.98;3.75;;;;;;;8.14;67.20;100321.53;5052158;28;20060;-58
2022/02/02 07:28:25;;;;;;;14.15;3.65;;;;;;;8.08;66.89;100336.63;5036499;28;20071;-59
2022/02/02 07:31:00;;;;;;;19.35;4.05;;;;;;;8.22;66.00;100341.41;5052656;28;20052;-57
2022/02/02 07:33:36;;;;;;;15.65;4.50;;;;;;;8.28;65.67;100352.13;5052532;28;20500;-56
2022/02/02 07:36:10;;;;;;;16.95;3.17;;;;;;;8.30;64.70;100337.94;5049672;28;20500;-59
2022/02/02 07:38:48;;;;;;;12.88;3.45;;;;;;;8.31;64.97;100339.56;5051697;28;20500;-57
2022/02/02 07:41:25;;;;;;;13.93;3.20;;;;;;;8.31;64.26;100334.84;5049722;28;20048;-59
2022/02/02 07:43:57;;;;;;;13.15;3.88;;;;;;;8.16;64.96;100337.06;5052443;28;20045;-60
2022/02/02 07:46:27;;;;;;;13.63;3.97;;;;;;;8.12;67.59;100337.66;5048571;28;20063;-41
2022/02/02 07:48:55;;;;;;;12.38;3.72;;;;;;;8.37;65.54;100332.81;5051766;28;20068;-58
2022/02/02 07:51:27;;;;;;;12.20;3.80;;;;;;;8.46;64.30;100327.44;5045576;28;20065;-58
2022/02/02 07:53:59;;;;;;;19.23;3.67;;;;;;;8.57;64.03;100336.41;5042779;28;20061;-57
2022/02/02 07:56:33;;;;;;;12.80;3.72;;;;;;;8.52;64.10;100337.31;5050120;28;20057;-57
2022/02/02 07:59:15;;;;;;;23.45;4.63;;;;;;;8.65;64.26;100344.88;5050151;28;20064;-57
2022/02/02 08:01:46;;;;;;;11.77;3.47;;;;;;;8.70;64.34;100352.28;5053226;28;20060;-56
2022/02/02 08:04:15;;;;;;;14.65;3.20;;;;;;;8.63;64.81;100363.78;5049172;28;20052;-56
2022/02/02 08:06:50;;;;;;;11.55;3.35;;;;;;;8.52;64.26;100367.84;5050736;28;20049;-57
2022/02/02 08:09:25;;;;;;;13.77;3.78;;;;;;;8.63;64.89;100368.50;5043071;28;20059;-59
2022/02/02 08:11:55;;;;;;;14.68;3.33;;;;;;;8.64;64.27;100375.72;5048713;28;20053;-58
2022/02/02 08:14:23;;;;;;;11.70;3.63;;;;;;;8.73;64.58;100385.00;5049726;28;20053;-59
2022/02/02 08:16:53;;;;;;;12.57;3.10;;;;;;;8.61;65.06;100393.81;5050934;28;20060;-54
2022/02/02 08:19:22;;;;;;;;;;;;;;;8.56;65.20;100390.28;5052353;28;20413;-58
2022/02/02 08:21:51;;;;;;;14.93;3.35;;;;;;;8.63;65.66;100391.56;5049671;28;19929;-57
2022/02/02 08:24:19;;;;;;;12.75;2.70;;;;;;;8.77;65.24;100390.75;5053458;28;20092;-59
2022/02/02 08:26:48;;;;;;;13.98;3.28;;;;;;;8.81;65.22;100402.91;5049156;28;20509;-59
2022/02/02 08:29:16;;;;;;;15.35;3.30;;;;;;;9.00;65.14;100411.19;5053876;28;20417;-59
2022/02/02 08:31:44;;;;;;;14.97;3.30;;;;;;;8.93;65.06;100406.03;5038238;28;20053;-56
2022/02/02 08:34:14;;;;;;;13.98;4.10;;;;;;;9.00;65.49;100419.53;5053306;28;20052;-59
2022/02/02 08:36:44;;;;;;;15.50;3.47;;;;;;;8.80;66.44;100437.34;5044253;28;20049;-57
2022/02/02 08:39:26;;;;;;;13.20;3.33;;;;;;;8.80;66.98;100429.03;5041102;28;20052;-59
2022/02/02 08:41:58;;;;;;;14.10;3.67;;;;;;;8.93;66.79;100456.03;5049541;28;20053;-59
2022/02/02 08:44:29;;;;;;;11.10;3.40;;;;;;;8.89;67.39;100455.00;5052535;28;20041;-56
2022/02/02 08:47:00;;;;;;;17.95;3.80;;;;;;;8.86;68.39;100456.44;5050004;28;20060;-59
2022/02/02 08:49:31;;;;;;;17.73;5.03;;;;;;;9.14;67.81;100459.28;5050838;28;20049;-56
2022/02/02 08:52:00;;;;;;;13.75;3.70;;;;;;;9.48;67.42;100472.00;5048835;28;20064;-59
2022/02/02 08:54:34;;;;;;;14.77;4.07;;;;;;;10.00;66.02;100469.84;5047258;28;20102;-60
2022/02/02 08:57:23;;;;;;;21.35;4.55;;;;;;;10.25;64.65;100473.22;5048011;28;20061;-60
2022/02/02 08:59:56;;;;;;;14.40;3.57;;;;;;;10.55;63.93;100478.13;5050724;28;20059;-57
2022/02/02 09:02:28;;;;;;;15.93;4.30;;;;;;;10.65;63.37;100470.69;5049277;28;20053;-58
2022/02/02 09:07:43;;;;;;;14.82;4.20;;;;;;;11.18;61.23;100470.72;5055078;28;20091;-57
2022/02/02 09:10:15;;;;;;;18.40;4.57;;;;;;;11.21;61.82;100468.44;5048710;28;20053;-58
2022/02/02 09:24:07;;;;;;;12.93;3.67;;;;;;;15.07;48.81;100471.94;4995695;28;20403;-59
2022/02/02 09:32:24;;;;;;;14.70;4.25;;;;;;;14.00;50.42;100491.81;5057360;28;20508;-58
2022/02/02 09:34:54;;;;;;;16.52;4.93;;;;;;;13.49;51.22;100488.91;5047605;28;20063;-59
2022/02/02 09:37:22;;;;;;;18.52;4.30;;;;;;;13.54;49.63;100480.34;5048515;28;20053;-55
2022/02/02 09:39:58;;;;;;;13.90;4.00;;;;;;;13.37;51.39;100492.38;5053280;28;20057;-59
2022/02/02 09:42:32;;;;;;;16.58;4.53;;;;;;;12.98;52.77;100494.22;5051822;28;20076;-58
2022/02/02 09:45:06;;;;;;;16.38;4.43;;;;;;;12.71;52.59;100502.94;5051176;28;20405;-59
2022/02/02 09:47:42;;;;;;;20.02;4.25;;;;;;;12.31;52.96;100498.28;5052263;28;20060;-57
2022/02/02 09:50:19;;;;;;;19.65;4.85;;;;;;;12.59;52.71;100498.81;5060208;28;20059;-59
2022/02/02 09:52:54;;;;;;;15.23;5.05;;;;;;;12.58;52.40;100502.78;5042002;28;20053;-57
2022/02/02 09:55:46;;;;;;;13.23;3.90;;;;;;;12.78;52.01;100498.50;5059987;28;20048;-57
2022/02/02 10:01:27;;;;;;;15.68;4.10;;;;;;;13.15;50.67;100518.56;5024789;28;20056;-59
2022/02/02 10:04:17;;;;;;;15.50;4.15;;;;;;;13.94;48.60;100518.38;5054490;28;20401;-59
2022/02/02 10:07:00;;;;;;;17.73;4.45;;;;;;;14.10;48.24;100515.84;5056613;28;20045;-59
2022/02/02 10:09:48;;;;;;;12.88;4.53;;;;;;;14.14;48.02;100509.22;5052828;28;20053;-58
2022/02/02 10:15:14;;;;;;;11.68;4.03;;;;;;;15.70;45.36;100520.28;5041938;28;20056;-58
2022/02/02 10:17:41;;;;;;;8.63;3.35;;;;;;;18.42;39.31;100509.78;5051497;28;20048;-59
2022/02/02 10:20:22;;;;;;;13.57;3.97;;;;;;;21.31;33.86;100506.81;5051188;28;20531;-58
2022/02/02 10:22:53;;;;;;;11.38;4.22;;;;;;;22.70;31.72;100510.16;5049482;28;20488;-59
2022/02/02 10:25:25;;;;;;;9.88;3.22;;;;;;;24.29;29.03;100520.75;5059627;28;20056;-60
2022/02/02 10:27:53;;;;;;;11.10;3.90;;;;;;;24.16;28.33;100516.72;5051725;28;20519;-60
2022/02/02 10:30:23;;;;;;;13.05;3.80;;;;;;;21.77;31.45;100523.56;5051462;28;20060;-59
2022/02/02 10:32:52;;;;;;;12.77;3.63;;;;;;;19.87;34.49;100527.34;5052048;28;20063;-59
2022/02/02 10:35:29;;;;;;;;;;;;;;;18.38;36.04;100520.16;5055765;28;20386;-55
2022/02/02 10:38:01;;;;;;;13.05;4.55;;;;;;;17.19;38.41;100536.72;5052143;28;19928;-60
2022/02/02 10:40:41;;;;;;;20.02;4.68;;;;;;;16.09;40.42;100543.34;5050558;28;20049;-59
2022/02/02 10:43:25;;;;;;;15.57;4.22;;;;;;;15.60;41.64;100551.63;5043870;28;20056;-58
2022/02/02 10:45:55;;;;;;;13.55;3.83;;;;;;;14.90;43.29;100554.25;5039255;28;20049;-58
2022/02/02 10:48:32;;;;;;;13.32;4.22;;;;;;;14.62;44.26;100552.00;5039792;28;20422;-60
2022/02/02 10:51:07;;;;;;;15.02;3.83;;;;;;;14.36;44.52;100558.56;5040606;28;20057;-59
2022/02/02 10:53:59;;;;;;;13.75;4.18;;;;;;;14.44;44.19;100545.63;5051568;28;20057;-60
2022/02/02 10:56:38;;;;;;;13.48;4.13;;;;;;;14.58;43.87;100546.22;5049804;28;20056;-60
2022/02/02 11:06:35;;;;;;;10.48;3.58;;;;;;;13.75;45.25;100567.19;5048088;28;20053;-59
2022/02/02 11:07:24;;;;;;;15.45;4.30;;;;;;;13.70;46.08;100570.16;5056767;28;20493;-60
2022/02/02 11:09:53;;;;;;;14.20;3.83;;;;;;;14.58;44.49;100567.84;5063188;28;20052;-60
2022/02/02 11:12:30;;;;;;;13.90;3.55;;;;;;;14.48;44.25;100560.59;5051532;28;20415;-59
2022/02/02 11:15:09;;;;;;;9.82;3.70;;;;;;;15.19;42.96;100556.97;5054190;28;20383;-60
2022/02/02 11:17:48;;;;;;;14.02;3.65;;;;;;;14.84;43.01;100556.44;5045922;28;20068;-60
2022/02/02 11:20:17;;;;;;;9.85;3.55;;;;;;;16.16;40.71;100552.00;5055459;28;20061;-58
2022/02/02 11:22:48;;;;;;;12.30;3.33;;;;;;;15.70;42.30;100554.00;5049318;28;20049;-60
2022/02/02 11:25:37;;;;;;;12.57;3.15;;;;;;;15.20;42.13;100558.63;5058906;28;20080;-59
2022/02/02 11:28:27;;;;;;;10.02;2.88;;;;;;;14.47;43.12;100567.38;5050129;28;20049;-60
2022/02/02 11:31:09;;;;;;;11.77;3.38;;;;;;;13.99;43.65;100572.22;5042280;28;20053;-59
2022/02/02 11:33:46;;;;;;;10.60;3.30;;;;;;;14.19;44.11;100581.88;5050552;28;20057;-59
2022/02/02 11:36:25;;;;;;;13.23;3.55;;;;;;;13.94;44.00;100574.38;5048655;28;20513;-60
2022/02/02 11:38:55;;;;;;;13.23;4.30;;;;;;;14.17;44.09;100595.41;5049649;28;20049;-60
2022/02/02 11:41:40;;;;;;;9.10;3.78;;;;;;;15.91;40.02;100587.66;5046873;28;20056;-60
2022/02/02 11:44:10;;;;;;;12.48;4.43;;;;;;;16.61;38.52;100582.00;5047455;28;20053;-60
2022/02/02 11:46:44;;;;;;;8.02;3.28;;;;;;;17.59;38.17;100585.72;5048206;28;20049;-59
2022/02/02 11:49:17;;;;;;;11.20;2.78;;;;;;;15.92;39.41;100591.31;5055569;28;20048;-59
2022/02/02 11:51:46;;;;;;;15.15;3.13;;;;;;;16.47;38.66;100592.78;5045208;28;20405;-58
2022/02/02 11:54:15;;;;;;;10.55;3.08;;;;;;;16.55;38.16;100589.03;5050071;28;20049;-60
2022/02/02 11:57:17;;;;;;;9.60;3.10;;;;;;;16.62;39.03;100586.44;5050056;28;20398;-60
2022/02/02 12:00:04;;;;;;;10.43;4.13;;;;;;;20.10;32.46;100583.09;5047441;28;20052;-58
2022/02/02 12:02:48;;;;;;;8.23;4.20;;;;;;;23.10;28.73;100570.84;5045063;28;20061;-55
2022/02/02 12:05:32;;;;;;;9.57;2.85;;;;;;;22.81;28.56;100572.69;5044359;28;20383;-60
2022/02/02 12:08:13;;;;;;;10.50;2.92;;;;;;;19.98;32.72;100574.78;5045516;28;20514;-60
2022/02/02 12:19:58;;;;;;;11.85;3.33;;;;;;;17.42;36.90;100587.66;5054181;28;20418;-60
2022/02/02 12:47:34;;;;;;;11.13;3.33;;;;;;;16.49;39.25;100593.25;5034556;28;20541;-59
2022/02/02 12:50:15;;;;;;;8.93;3.00;;;;;;;16.05;39.44;100592.16;5041596;28;20061;-59
2022/02/02 12:58:27;;;;;;;9.25;3.05;;;;;;;13.80;43.28;100606.22;5047080;28;20053;-59
2022/02/02 13:01:12;;;;;;;10.10;3.00;;;;;;;13.29;44.78;100616.31;5048185;28;20375;-59
2022/02/02 13:03:41;;;;;;;12.13;3.08;;;;;;;13.48;44.77;100603.94;5049944;28;20057;-58
2022/02/02 13:06:13;;;;;;;8.63;2.67;;;;;;;16.23;39.60;100611.28;5049548;28;20056;-59
2022/02/02 13:08:40;;;;;;;9.65;2.63;;;;;;;15.52;40.62;100612.34;5048169;28;20402;-60
2022/02/02 13:11:09;;;;;;;7.78;2.58;;;;;;;14.91;41.32;100609.19;5042708;28;20060;-59
2022/02/02 13:13:37;;;;;;;8.80;2.45;;;;;;;15.06;41.14;100613.38;5048357;28;20394;-58
2022/02/02 13:16:15;;;;;;;7.07;2.47;;;;;;;15.48;40.77;100616.19;5050168;28;20045;-59
2022/02/02 13:18:45;;;;;;;7.53;2.80;;;;;;;15.30;41.31;100619.13;5050804;28;20049;-56
2022/02/02 13:21:16;;;;;;;9.43;2.60;;;;;;;14.72;42.54;100606.81;5053078;28;20532;-59
2022/02/02 13:23:53;;;;;;;12.73;2.78;;;;;;;14.17;43.24;100606.59;5052733;28;20056;-59
2022/02/02 13:26:32;;;;;;;10.63;3.05;;;;;;;14.13;43.87;100602.81;5053623;28;20481;-56
2022/02/02 13:29:07;;;;;;;8.80;2.95;;;;;;;14.02;43.79;100610.75;5068267;28;20088;-57
2022/02/02 13:31:47;;;;;;;8.50;3.05;;;;;;;13.76;44.15;100621.22;5053155;28;20057;-59
2022/02/02 13:34:28;;;;;;;11.27;2.88;;;;;;;13.74;44.24;100624.34;5044277;28;20053;-57
2022/02/02 13:37:41;;;;;;;10.65;2.78;;;;;;;13.52;44.96;100621.72;5052508;28;20049;-57
2022/02/02 13:43:06;;;;;;;12.20;3.15;;;;;;;13.64;45.46;100619.06;5061231;28;20048;-59
2022/02/02 13:51:37;;;;;;;8.57;2.88;;;;;;;12.23;47.96;100632.34;5037363;28;20045;-59
2022/02/02 14:05:24;;;;;;;10.40;2.97;;;;;;;11.40;50.90;100671.81;5057977;28;20810;-58
2022/02/02 14:08:02;;;;;;;9.68;3.17;;;;;;;11.23;51.44;100673.28;5054672;28;20399;-58
2022/02/02 14:10:58;;;;;;;11.75;3.78;;;;;;;14.11;45.44;100658.34;5052215;28;20406;-59
2022/02/02 14:32:39;;;;;;;8.35;3.00;;;;;;;18.81;34.62;100653.81;5052523;28;20509;-59
2022/02/02 14:35:06;;;;;;;12.27;3.53;;;;;;;19.50;33.22;100647.69;5052551;28;20513;-60
2022/02/02 14:37:41;;;;;;;10.18;2.83;;;;;;;21.03;30.81;100649.72;5057690;28;20048;-60
2022/02/02 14:40:17;;;;;;;7.28;2.90;;;;;;;21.80;28.97;100649.56;5060176;28;20056;-58
2022/02/02 14:42:48;;;;;;;8.13;2.63;;;;;;;22.29;28.69;100637.97;5052566;28;20089;-59
2022/02/02 14:45:19;;;;;;;8.02;2.97;;;;;;;22.33;27.83;100640.03;5044278;28;20056;-60
2022/02/02 14:47:52;;;;;;;11.20;3.20;;;;;;;22.25;27.99;100642.78;5059784;28;20560;-60
2022/02/02 14:50:25;;;;;;;7.97;2.70;;;;;;;22.21;28.27;100638.25;5059282;28;20045;-60
2022/02/02 14:53:06;;;;;;;8.57;2.58;;;;;;;21.74;28.87;100643.44;5056480;28;20457;-60
2022/02/02 15:16:45;;;;;;;9.90;3.10;;;;;;;14.30;42.20;100671.13;4982381;28;20546;-57
2022/02/02 15:24:27;;;;;;;9.75;2.90;;;;;;;13.11;45.12;100702.16;5066821;28;20067;-60
2022/02/02 15:29:55;;;;;;;8.38;3.58;;;;;;;12.51;46.74;100719.53;5050148;28;20076;-58
2022/02/02 15:32:22;;;;;;;13.30;2.83;;;;;;;12.51;46.97;100723.16;5043356;28;20489;-58
2022/02/02 15:34:55;;;;;;;11.07;3.13;;;;;;;12.44;47.18;100722.78;5049987;28;20501;-60
2022/02/02 15:37:32;;;;;;;9.85;2.88;;;;;;;12.27;47.54;100726.31;5044151;28;20049;-59
2022/02/02 15:40:05;;;;;;;9.90;2.92;;;;;;;12.09;47.43;100722.59;5050668;28;20056;-60
2022/02/02 15:42:57;;;;;;;12.13;2.95;;;;;;;12.03;47.68;100726.66;5050843;28;20053;-58
2022/02/02 15:59:35;;;;;;;;;;;;;;;10.67;50.88;100721.91;5025631;28;20053;-60
2022/02/02 16:02:10;;;;;;;9.40;2.65;;;;;;;10.52;51.30;100721.06;5041869;28;19920;-60
2022/02/02 16:04:38;;;;;;;11.60;3.42;;;;;;;10.43;51.35;100717.31;5049590;28;20485;-59
2022/02/02 16:07:08;;;;;;;10.85;2.72;;;;;;;10.27;51.70;100715.94;5052971;28;20049;-56
2022/02/02 16:09:49;;;;;;;9.88;3.20;;;;;;;10.21;51.83;100717.97;5042205;28;20064;-60
2022/02/02 16:12:21;;;;;;;10.05;2.80;;;;;;;10.04;52.41;100718.56;5054002;28;20060;-60
2022/02/02 16:14:54;;;;;;;10.40;2.80;;;;;;;10.03;52.55;100722.47;5055847;28;20056;-58
2022/02/02 16:17:43;;;;;;;15.15;3.22;;;;;;;9.90;53.22;100728.81;5050985;28;20052;-59
2022/02/02 16:31:38;;;;;;;11.13;2.90;;;;;;;9.62;54.14;100761.25;5055436;28;20182;-56
2022/02/02 16:36:53;;;;;;;9.02;3.13;;;;;;;9.47;54.77;100765.06;5050441;28;20536;-54
2022/02/02 16:39:24;;;;;;;11.15;3.72;;;;;;;9.37;55.39;100765.22;5050490;28;20060;-58
2022/02/02 16:44:44;;;;;;;12.15;3.38;;;;;;;9.16;56.02;100776.63;5050958;28;20060;-60
2022/02/02 16:47:12;;;;;;;12.50;3.78;;;;;;;9.12;56.53;100778.34;5051559;28;20057;-60
2022/02/02 16:49:41;;;;;;;9.70;3.78;;;;;;;9.11;56.65;100782.22;5038844;28;20410;-60
2022/02/02 16:52:09;;;;;;;9.27;3.63;;;;;;;9.08;57.31;100785.59;5047870;28;20497;-60
2022/02/02 16:54:41;;;;;;;13.15;4.93;;;;;;;9.08;57.07;100785.59;5049277;28;20053;-60
2022/02/02 16:57:27;;;;;;;11.30;4.10;;;;;;;9.06;56.85;100783.13;5050909;28;20048;-60
2022/02/02 17:30:59;;;;;;;13.73;4.00;;;;;;;8.30;60.80;100799.44;5021712;28;20052;-60
2022/02/02 17:33:31;;;;;;;8.35;3.38;;;;;;;8.23;61.01;100798.09;5049569;28;20257;-60
2022/02/02 17:36:13;;;;;;;14.75;5.53;;;;;;;8.13;60.52;100787.94;5045322;28;20056;-60
2022/02/02 17:38:51;;;;;;;9.93;3.30;;;;;;;8.06;61.15;100790.19;5051268;28;20060;-59
2022/02/02 18:20:39;;;;;;;17.73;4.28;;;;;;;7.29;64.43;100824.78;5033388;28;20347;-59
2022/02/02 18:23:15;;;;;;;9.57;3.45;;;;;;;7.28;64.40;100820.34;5034726;28;20060;-60
2022/02/02 18:25:47;;;;;;;14.52;3.85;;;;;;;7.29;64.16;100822.03;5039498;28;20048;-59
2022/02/02 18:28:23;;;;;;;10.98;3.63;;;;;;;7.28;64.34;100812.03;5048188;28;20049;-58
2022/02/02 18:31:03;;;;;;;10.10;3.67;;;;;;;7.26;64.56;100814.25;5050997;28;20057;-59
2022/02/02 18:33:44;;;;;;;13.90;4.20;;;;;;;7.20;64.84;100820.97;5050669;28;20494;-59
2022/02/02 18:36:24;;;;;;;8.82;3.10;;;;;;;7.16;65.17;100816.25;5048908;28;20053;-59
2022/02/02 18:47:51;;;;;;;17.17;4.10;;;;;;;7.08;65.35;100818.50;5028243;28;20045;-58
2022/02/02 18:50:29;;;;;;;13.88;3.75;;;;;;;7.10;66.10;100826.53;5052977;28;20056;-58
2022/02/02 18:56:17;;;;;;;8.70;3.78;;;;;;;7.11;65.62;100822.63;5041290;28;20052;-58
2022/02/02 18:58:54;;;;;;;13.85;3.95;;;;;;;7.10;65.63;100824.59;5052212;28;20049;-59
2022/02/02 19:01:32;;;;;;;12.13;3.95;;;;;;;7.12;66.08;100824.31;5052877;28;20060;-60